Time;durP1;ratioP1;P1;durP2;ratioP2;P2;SDS_P1;SDS_P2;PMS_P1;PMS_P2;Temp;Humidity;BMP_temperature;BMP_pressure;BME280_temperature;BME280_humidity;BME280_pressure;Samples;Min_cycle;Max_cycle;Signal;HPM_P1;HPM_P2
2024/01/02 00:02:12;;;;;;;;;;;;;;;11.50;82.02;97626.56;7355548;19;19907;-64
2024/01/02 00:04:37;;;;;;;;;;;;;;;11.49;81.86;97618.88;7356705;19;19938;-64
2024/01/02 00:07:02;;;;;;;;;;;;;;;11.47;81.51;97629.44;7354114;19;19919;-65
2024/01/02 00:09:28;;;;;;;;;;;;;;;11.47;81.37;97633.84;7360390;19;19946;-65
2024/01/02 00:11:53;;;;;;;;;;;;;;;11.47;81.79;97629.44;7357773;19;20648;-65
2024/01/02 00:14:18;;;;;;;;;;;;;;;11.46;81.93;97650.47;7356668;19;19923;-65
2024/01/02 00:16:44;;;;;;;;;;;;;;;11.47;81.76;97639.06;7358258;19;19911;-65
2024/01/02 00:19:09;;;;;;;;;;;;;;;11.45;81.68;97631.31;7359100;19;19927;-65
2024/01/02 00:21:34;;;;;;;;;;;;;;;11.44;81.37;97619.22;7357954;19;19918;-65
2024/01/02 00:24:02;;;;;;;;;;;;;;;11.42;81.19;97621.94;7356974;19;19923;-65
2024/01/02 00:26:27;;;;;;;;;;;;;;;11.39;81.08;97632.63;7359165;19;19950;-65
2024/01/02 00:28:53;;;;;;;;;;;;;;;11.37;81.44;97629.31;7358622;19;19915;-65
2024/01/02 00:31:19;;;;;;;;;;;;;;;11.36;81.27;97647.72;7358946;19;19919;-65
2024/01/02 00:33:44;;;;;;;;;;;;;;;11.35;81.82;97631.22;7357644;19;20728;-64
2024/01/02 00:36:10;;;;;;;;;;;;;;;11.35;81.65;97635.56;7352064;19;19936;-65
2024/01/02 00:38:35;;;;;;;;;;;;;;;11.35;81.82;97640.78;7360258;19;20498;-64
2024/01/02 00:41:01;;;;;;;;;;;;;;;11.33;82.02;97653.97;7359523;19;20006;-65
2024/01/02 00:43:26;;;;;;;;;;;;;;;11.34;81.52;97660.03;7358690;19;19926;-64
2024/01/02 00:45:51;;;;;;;;;;;;;;;11.34;81.87;97666.09;7360643;19;20348;-65
2024/01/02 00:48:16;;;;;;;;;;;;;;;11.34;82.06;97663.47;7352770;19;20555;-64
2024/01/02 00:50:41;;;;;;;;;;;;;;;11.34;81.97;97681.75;7348243;19;19938;-65
2024/01/02 00:53:07;;;;;;;;;;;;;;;11.35;81.94;97693.03;7359875;19;19923;-65
2024/01/02 00:55:32;;;;;;;;;;;;;;;11.35;81.92;97683.47;7347075;19;19926;-65
2024/01/02 00:57:57;;;;;;;;;;;;;;;11.36;81.75;97699.97;7356525;19;19930;-65
2024/01/02 01:00:23;;;;;;;;;;;;;;;11.35;81.78;97687.81;7360392;19;19930;-65
2024/01/02 01:02:48;;;;;;;;;;;;;;;11.35;81.66;97693.91;7357531;19;20442;-65
2024/01/02 01:05:13;;;;;;;;;;;;;;;11.34;81.49;97696.59;7358171;19;19922;-65
2024/01/02 01:07:38;;;;;;;;;;;;;;;11.33;81.26;97705.41;7357025;19;19923;-65
2024/01/02 01:10:04;;;;;;;;;;;;;;;11.30;80.99;97703.81;7359469;19;19911;-64
2024/01/02 01:12:29;;;;;;;;;;;;;;;11.28;81.06;97697.91;7354792;19;20518;-65
2024/01/02 01:14:54;;;;;;;;;;;;;;;11.26;81.12;97704.19;7360489;19;19943;-65
2024/01/02 01:17:19;;;;;;;;;;;;;;;11.23;80.77;97704.41;7357385;19;19931;-65
2024/01/02 01:19:45;;;;;;;;;;;;;;;11.13;80.89;97684.19;7356586;19;20280;-65
2024/01/02 01:22:10;;;;;;;;;;;;;;;11.16;80.74;97694.41;7362316;19;19919;-65
2024/01/02 01:24:35;;;;;;;;;;;;;;;11.12;80.66;97708.63;7362826;19;20474;-65
2024/01/02 01:27:00;;;;;;;;;;;;;;;11.08;80.74;97707.19;7356361;19;19923;-65
2024/01/02 01:29:26;;;;;;;;;;;;;;;11.05;80.73;97717.00;7357820;19;19925;-65
2024/01/02 01:31:51;;;;;;;;;;;;;;;10.99;80.68;97713.06;7357420;19;20410;-65
2024/01/02 01:34:17;;;;;;;;;;;;;;;10.95;80.54;97706.44;7356912;19;19923;-65
2024/01/02 01:36:42;;;;;;;;;;;;;;;10.90;80.52;97711.13;7356549;19;19928;-65
2024/01/02 01:39:07;;;;;;;;;;;;;;;10.86;80.90;97702.69;7357728;19;20019;-65
2024/01/02 01:41:32;;;;;;;;;;;;;;;10.83;80.89;97702.06;7358225;19;19923;-66
2024/01/02 01:43:58;;;;;;;;;;;;;;;10.78;80.97;97705.00;7359204;19;20339;-65
2024/01/02 01:46:25;;;;;;;;;;;;;;;10.75;81.08;97700.03;7352508;19;19968;-65
2024/01/02 01:48:50;;;;;;;;;;;;;;;10.71;81.07;97698.56;7357183;19;19922;-66
2024/01/02 01:51:16;;;;;;;;;;;;;;;10.68;81.18;97687.50;7352862;19;19939;-65
2024/01/02 01:53:41;;;;;;;;;;;;;;;10.65;81.28;97697.22;7359357;19;19922;-65
2024/01/02 01:56:07;;;;;;;;;;;;;;;10.63;81.32;97704.31;7353173;19;19922;-65
2024/01/02 01:58:33;;;;;;;;;;;;;;;10.61;80.95;97708.00;7359100;19;19930;-65
2024/01/02 02:00:58;;;;;;;;;;;;;;;10.59;81.19;97707.25;7351618;19;19918;-65
2024/01/02 02:03:25;;;;;;;;;;;;;;;10.56;81.05;97710.09;7358327;19;19922;-65
2024/01/02 02:05:50;;;;;;;;;;;;;;;10.55;81.37;97724.91;7353875;19;19942;-65
2024/01/02 02:08:15;;;;;;;;;;;;;;;10.53;81.21;97718.13;7356881;19;19918;-65
2024/01/02 02:10:41;;;;;;;;;;;;;;;10.51;81.32;97731.28;7354015;19;19923;-65
2024/01/02 02:13:06;;;;;;;;;;;;;;;10.50;81.17;97727.00;7352257;19;19919;-65
2024/01/02 02:15:31;;;;;;;;;;;;;;;10.49;81.36;97714.03;7362737;19;19929;-65
2024/01/02 02:17:57;;;;;;;;;;;;;;;10.48;81.21;97718.44;7362961;19;19978;-65
2024/01/02 02:20:22;;;;;;;;;;;;;;;10.47;81.53;97724.59;7354317;19;19926;-65
2024/01/02 02:22:51;;;;;;;;;;;;;;;10.47;81.38;97716.78;7356544;19;20417;-65
2024/01/02 02:25:16;;;;;;;;;;;;;;;10.45;81.79;97723.88;7351642;19;19931;-65
2024/01/02 02:27:42;;;;;;;;;;;;;;;10.44;81.78;97717.00;7356618;19;19930;-65
2024/01/02 02:30:07;;;;;;;;;;;;;;;10.43;81.39;97720.53;7355142;19;19929;-64
2024/01/02 02:32:33;;;;;;;;;;;;;;;10.43;81.36;97725.75;7353756;19;20018;-65
2024/01/02 02:34:58;;;;;;;;;;;;;;;10.42;81.47;97716.25;7358489;19;19923;-65
2024/01/02 02:37:23;;;;;;;;;;;;;;;10.40;81.50;97710.34;7349727;19;19930;-65
2024/01/02 02:39:49;;;;;;;;;;;;;;;10.38;81.77;97701.75;7353844;19;19933;-65
2024/01/02 02:42:14;;;;;;;;;;;;;;;10.37;81.70;97705.31;7360499;19;19919;-65
2024/01/02 02:44:42;;;;;;;;;;;;;;;10.36;81.62;97708.88;7353854;19;19914;-65
2024/01/02 02:47:08;;;;;;;;;;;;;;;10.35;81.54;97713.25;7361822;19;19943;-65
2024/01/02 02:49:33;;;;;;;;;;;;;;;10.33;81.59;97719.50;7358701;19;19911;-65
2024/01/02 02:51:58;;;;;;;;;;;;;;;10.32;81.30;97707.41;7359468;19;20331;-65
2024/01/02 02:54:24;;;;;;;;;;;;;;;10.31;81.32;97695.31;7356982;19;20300;-65
2024/01/02 02:56:49;;;;;;;;;;;;;;;10.30;81.29;97704.09;7365382;19;19945;-65
2024/01/02 02:59:14;;;;;;;;;;;;;;;10.29;81.37;97687.59;7365896;19;20460;-65
2024/01/02 03:01:41;;;;;;;;;;;;;;;10.29;81.40;97694.56;7370294;19;19954;-65
2024/01/02 03:04:06;;;;;;;;;;;;;;;10.27;81.33;97673.00;7365575;19;20707;-64
2024/01/02 03:06:31;;;;;;;;;;;;;;;10.26;81.74;97679.97;7367825;19;19919;-65
2024/01/02 03:08:56;;;;;;;;;;;;;;;10.24;81.31;97684.50;7368349;19;20347;-65
2024/01/02 03:11:22;;;;;;;;;;;;;;;10.24;81.79;97683.63;7365794;19;20263;-65
2024/01/02 03:13:47;;;;;;;;;;;;;;;10.23;81.36;97684.53;7370754;19;19942;-65
2024/01/02 03:16:13;;;;;;;;;;;;;;;10.21;81.84;97679.44;7363796;19;20014;-65
2024/01/02 03:18:39;;;;;;;;;;;;;;;10.21;81.63;97676.00;7370085;19;20431;-65
2024/01/02 03:21:05;;;;;;;;;;;;;;;10.21;81.46;97673.41;7360098;19;20010;-65
2024/01/02 03:23:30;;;;;;;;;;;;;;;10.18;81.87;97663.16;7368691;19;19930;-65
2024/01/02 03:25:55;;;;;;;;;;;;;;;10.19;81.57;97680.47;7372399;19;19919;-64
2024/01/02 03:28:20;;;;;;;;;;;;;;;10.19;81.92;97672.66;7366242;19;19910;-65
2024/01/02 03:30:46;;;;;;;;;;;;;;;10.17;81.74;97662.34;7364348;19;19911;-65
2024/01/02 03:33:11;;;;;;;;;;;;;;;10.17;81.45;97664.13;7369592;19;19919;-65
2024/01/02 03:35:36;;;;;;;;;;;;;;;10.16;81.45;97662.44;7367171;19;19937;-65
2024/01/02 03:38:02;;;;;;;;;;;;;;;10.14;81.86;97660.78;7366608;19;19915;-65
2024/01/02 03:40:27;;;;;;;;;;;;;;;10.10;81.94;97656.72;6754768;19;20889;-65
2024/01/02 03:42:53;;;;;;;;;;;;;;;10.12;81.74;97667.88;6796943;19;19922;-65
2024/01/02 03:45:18;;;;;;;;;;;;;;;10.13;81.98;97666.91;7370762;19;20340;-65
2024/01/02 03:47:43;;;;;;;;;;;;;;;10.13;82.10;97666.09;7366206;19;19986;-65
2024/01/02 03:50:09;;;;;;;;;;;;;;;10.13;81.73;97669.53;7363725;19;19923;-65
2024/01/02 03:52:34;;;;;;;;;;;;;;;10.14;81.95;97671.22;7368416;19;20014;-65
2024/01/02 03:54:59;;;;;;;;;;;;;;;10.16;82.06;97659.84;7364363;19;19970;-65
2024/01/02 03:57:26;;;;;;;;;;;;;;;10.17;81.82;97658.91;7369831;19;19922;-65
2024/01/02 03:59:51;;;;;;;;;;;;;;;10.17;82.03;97657.13;7366929;19;19926;-65
2024/01/02 04:02:17;;;;;;;;;;;;;;;10.19;81.91;97665.69;7367448;19;19927;-65
2024/01/02 04:04:42;;;;;;;;;;;;;;;10.19;82.01;97672.66;7368015;19;19915;-65
2024/01/02 04:07:07;;;;;;;;;;;;;;;10.20;82.09;97666.53;7362515;19;19957;-65
2024/01/02 04:09:32;;;;;;;;;;;;;;;10.14;82.08;97666.00;7367772;19;19915;-64
2024/01/02 04:11:58;;;;;;;;;;;;;;;10.20;82.00;97661.31;7368525;19;19946;-65
2024/01/02 04:14:23;;;;;;;;;;;;;;;10.21;81.90;97674.22;7362772;19;19919;-65
2024/01/02 04:16:48;;;;;;;;;;;;;;;10.22;81.98;97669.84;7367863;19;19918;-65
2024/01/02 04:19:13;;;;;;;;;;;;;;;10.21;82.15;97666.41;7337884;19;19919;-65
2024/01/02 04:21:39;;;;;;;;;;;;;;;10.22;82.26;97659.41;7364269;19;19919;-64
2024/01/02 04:24:04;;;;;;;;;;;;;;;10.21;82.29;97653.38;7365280;19;20402;-64
2024/01/02 04:26:29;;;;;;;;;;;;;;;10.23;82.33;97650.63;7365750;19;20743;-65
2024/01/02 04:28:55;;;;;;;;;;;;;;;10.24;82.41;97647.13;7366163;19;19923;-65
2024/01/02 04:31:20;;;;;;;;;;;;;;;10.25;82.45;97646.19;7368168;19;20324;-64
2024/01/02 04:33:45;;;;;;;;;;;;;;;10.27;82.49;97646.91;7356925;19;20237;-65
2024/01/02 04:36:11;;;;;;;;;;;;;;;10.29;82.54;97643.28;7358877;19;19921;-65
2024/01/02 04:38:36;;;;;;;;;;;;;;;10.32;82.25;97642.19;7369147;19;20398;-65
2024/01/02 04:41:02;;;;;;;;;;;;;;;10.34;82.40;97632.47;7366671;19;19918;-64
2024/01/02 04:43:28;;;;;;;;;;;;;;;10.36;82.24;97628.84;7365091;19;19925;-65
2024/01/02 04:45:53;;;;;;;;;;;;;;;10.38;82.69;97620.91;7366970;19;19919;-65
2024/01/02 04:48:18;;;;;;;;;;;;;;;10.40;82.49;97621.66;7361170;19;19994;-64
2024/01/02 04:50:44;;;;;;;;;;;;;;;10.41;82.23;97618.09;7367295;19;19947;-65
2024/01/02 04:53:09;;;;;;;;;;;;;;;10.41;82.46;97610.25;7362714;19;20010;-65
2024/01/02 04:55:34;;;;;;;;;;;;;;;10.43;82.29;97613.56;7355692;19;19914;-65
2024/01/02 04:58:02;;;;;;;;;;;;;;;10.44;82.39;97607.44;7363007;19;19928;-65
2024/01/02 05:00:27;;;;;;;;;;;;;;;10.45;82.15;97608.28;7363461;19;19911;-65
2024/01/02 05:02:52;;;;;;;;;;;;;;;10.46;82.39;97608.16;7368453;19;19922;-65
2024/01/02 05:05:18;;;;;;;;;;;;;;;10.47;82.07;97608.97;7362252;19;19925;-64
2024/01/02 05:07:43;;;;;;;;;;;;;;;10.47;82.25;97596.78;7371472;19;19918;-65
2024/01/02 05:10:08;;;;;;;;;;;;;;;10.48;82.00;97590.59;7368088;19;19918;-65
2024/01/02 05:12:34;;;;;;;;;;;;;;;10.49;81.98;97600.13;7361005;19;19923;-64
2024/01/02 05:14:59;;;;;;;;;;;;;;;10.49;82.08;97605.34;7366499;19;19914;-64
2024/01/02 05:17:24;;;;;;;;;;;;;;;10.50;82.25;97600.94;7361118;19;19930;-65
2024/01/02 05:19:49;;;;;;;;;;;;;;;10.50;81.93;97603.56;7364810;19;19926;-65
2024/01/02 05:22:15;;;;;;;;;;;;;;;10.51;82.05;97593.00;7363097;19;19923;-65
2024/01/02 05:24:40;;;;;;;;;;;;;;;10.50;81.93;97601.78;7365596;19;19923;-64
2024/01/02 05:27:05;;;;;;;;;;;;;;;10.51;82.13;97593.00;7367896;19;20304;-64
2024/01/02 05:29:30;;;;;;;;;;;;;;;10.52;81.94;97604.28;7363310;19;19919;-65
2024/01/02 05:31:56;;;;;;;;;;;;;;;10.52;81.99;97609.50;7365565;19;19994;-65
2024/01/02 05:34:21;;;;;;;;;;;;;;;10.52;81.88;97615.53;7368627;19;19922;-65
2024/01/02 05:36:46;;;;;;;;;;;;;;;10.52;81.92;97604.28;7370696;19;19940;-65
2024/01/02 05:39:12;;;;;;;;;;;;;;;10.53;81.99;97606.75;7365911;19;19936;-64
2024/01/02 05:41:37;;;;;;;;;;;;;;;10.54;82.23;97610.19;7365479;19;20375;-65
2024/01/02 05:44:02;;;;;;;;;;;;;;;10.55;82.27;97591.00;7363313;19;19915;-64
2024/01/02 05:46:27;;;;;;;;;;;;;;;10.55;82.28;97586.63;7367448;19;19927;-64
2024/01/02 05:48:53;;;;;;;;;;;;;;;10.57;81.86;97592.56;7373765;19;19923;-64
2024/01/02 05:51:18;;;;;;;;;;;;;;;10.58;81.90;97586.38;7372531;19;19919;-64
2024/01/02 05:53:43;;;;;;;;;;;;;;;10.59;81.88;97589.81;7369833;19;19915;-64
2024/01/02 05:56:10;;;;;;;;;;;;;;;10.60;82.30;97589.75;7361234;19;19915;-64
2024/01/02 05:58:35;;;;;;;;;;;;;;;10.62;82.30;97580.00;7366313;19;19951;-65
2024/01/02 06:01:00;;;;;;;;;;;;;;;10.63;81.92;97576.44;7362406;19;19922;-65
2024/01/02 06:03:26;;;;;;;;;;;;;;;10.64;82.37;97572.91;7363873;19;20003;-64
2024/01/02 06:05:51;;;;;;;;;;;;;;;10.65;82.16;97574.56;7362701;19;19923;-64
2024/01/02 06:08:16;;;;;;;;;;;;;;;10.67;82.31;97571.84;7364586;19;20526;-65
2024/01/02 06:10:41;;;;;;;;;;;;;;;10.69;82.05;97571.72;7363268;19;19910;-65
2024/01/02 06:13:07;;;;;;;;;;;;;;;10.69;81.92;97579.56;7362074;19;19940;-65
2024/01/02 06:15:33;;;;;;;;;;;;;;;10.71;82.00;97572.47;7363765;19;20447;-64
2024/01/02 06:17:58;;;;;;;;;;;;;;;10.72;81.82;97579.34;7360730;19;19923;-64
2024/01/02 06:20:23;;;;;;;;;;;;;;;10.73;82.09;97565.34;7363086;19;19922;-64
2024/01/02 06:22:48;;;;;;;;;;;;;;;10.74;82.17;97561.78;7357129;19;20253;-64
2024/01/02 06:25:14;;;;;;;;;;;;;;;10.74;82.02;97561.78;7359729;19;19922;-65
2024/01/02 06:27:40;;;;;;;;;;;;;;;10.75;82.08;97563.47;7337118;19;19938;-65
2024/01/02 06:30:05;;;;;;;;;;;;;;;10.74;82.03;97573.06;7364836;19;19915;-65
2024/01/02 06:32:31;;;;;;;;;;;;;;;10.74;81.85;97573.06;7363039;19;19939;-64
2024/01/02 06:34:57;;;;;;;;;;;;;;;10.75;82.02;97563.47;7361154;19;20321;-64
2024/01/02 06:37:23;;;;;;;;;;;;;;;10.75;81.79;97569.53;7364846;19;19930;-64
2024/01/02 06:39:49;;;;;;;;;;;;;;;10.76;81.80;97562.53;7360199;19;19986;-64
2024/01/02 06:42:14;;;;;;;;;;;;;;;10.78;81.83;97555.41;7364524;19;19994;-65
2024/01/02 06:44:39;;;;;;;;;;;;;;;10.79;82.28;97547.44;7365756;19;19933;-64
2024/01/02 06:47:04;;;;;;;;;;;;;;;10.80;81.75;97561.34;7362979;19;20786;-64
2024/01/02 06:49:30;;;;;;;;;;;;;;;10.80;82.02;97556.13;7361391;19;20441;-64
2024/01/02 06:51:55;;;;;;;;;;;;;;;10.82;81.81;97560.28;7359589;19;19926;-65
2024/01/02 06:54:20;;;;;;;;;;;;;;;10.84;82.09;97560.16;7360870;19;20353;-64
2024/01/02 06:56:45;;;;;;;;;;;;;;;10.83;81.86;97550.66;7364343;19;20254;-64
2024/01/02 06:59:11;;;;;;;;;;;;;;;10.84;82.07;97552.31;7357870;19;19919;-64
2024/01/02 07:01:36;;;;;;;;;;;;;;;10.84;82.23;97547.09;7360567;19;19919;-64
2024/01/02 07:04:01;;;;;;;;;;;;;;;10.85;82.10;97543.56;7360936;19;19930;-64
2024/01/02 07:06:27;;;;;;;;;;;;;;;10.86;82.13;97542.63;7358722;19;19956;-64
2024/01/02 07:08:52;;;;;;;;;;;;;;;10.87;82.00;97536.44;7367485;19;20505;-64
2024/01/02 07:11:17;;;;;;;;;;;;;;;10.86;82.19;97530.41;7361927;19;19927;-65
2024/01/02 07:13:42;;;;;;;;;;;;;;;10.88;81.79;97527.66;7359832;19;19922;-64
2024/01/02 07:16:08;;;;;;;;;;;;;;;10.88;82.15;97517.22;7361687;19;19923;-64
2024/01/02 07:18:33;;;;;;;;;;;;;;;10.88;82.07;97517.22;7360711;19;19915;-64
2024/01/02 07:20:58;;;;;;;;;;;;;;;10.89;81.72;97518.88;7360444;19;19994;-64
2024/01/02 07:23:23;;;;;;;;;;;;;;;10.84;81.71;97502.72;7362399;19;19998;-64
2024/01/02 07:25:49;;;;;;;;;;;;;;;10.89;81.72;97511.88;7360236;19;19923;-64
2024/01/02 07:28:14;;;;;;;;;;;;;;;10.90;82.00;97504.91;7360966;19;20585;-64
2024/01/02 07:30:39;;;;;;;;;;;;;;;10.91;81.79;97496.13;7371275;19;19914;-65
2024/01/02 07:33:05;;;;;;;;;;;;;;;10.92;82.10;97492.56;7371343;19;19975;-65
2024/01/02 07:35:30;;;;;;;;;;;;;;;10.93;82.17;97493.38;7357087;19;19994;-64
2024/01/02 07:37:55;;;;;;;;;;;;;;;10.93;81.71;97483.78;7355173;19;20333;-64
2024/01/02 07:40:20;;;;;;;;;;;;;;;10.94;81.80;97482.81;7362844;19;19915;-64
2024/01/02 07:42:46;;;;;;;;;;;;;;;10.89;81.81;97469.28;7363036;19;19918;-64
2024/01/02 07:45:11;;;;;;;;;;;;;;;10.95;81.66;97481.03;7369621;19;19919;-64
2024/01/02 07:47:36;;;;;;;;;;;;;;;10.94;81.60;97472.38;7358474;19;19927;-64
2024/01/02 07:50:04;;;;;;;;;;;;;;;10.95;81.84;97468.84;7367956;19;19919;-65
2024/01/02 07:52:30;;;;;;;;;;;;;;;10.96;82.09;97467.91;7361173;19;19923;-65
2024/01/02 07:54:55;;;;;;;;;;;;;;;10.96;81.54;97462.66;7367286;19;19923;-64
2024/01/02 07:57:20;;;;;;;;;;;;;;;10.95;81.83;97455.78;7362632;19;20602;-64
2024/01/02 07:59:46;;;;;;;;;;;;;;;10.95;81.55;97454.94;7370734;19;19930;-64
2024/01/02 08:02:11;;;;;;;;;;;;;;;10.95;81.53;97450.56;7368062;19;19952;-64
2024/01/02 08:04:36;;;;;;;;;;;;;;;10.94;81.53;97438.44;7369921;19;19923;-65
2024/01/02 08:07:01;;;;;;;;;;;;;;;10.94;81.79;97441.06;7361529;19;19934;-64
2024/01/02 08:09:27;;;;;;;;;;;;;;;10.93;81.51;97431.56;7372749;19;19982;-64
2024/01/02 08:11:52;;;;;;;;;;;;;;;10.92;81.61;97424.69;7372305;19;19939;-64
2024/01/02 08:14:17;;;;;;;;;;;;;;;10.92;81.89;97419.47;7366065;19;20313;-64
2024/01/02 08:16:43;;;;;;;;;;;;;;;10.91;81.49;97417.81;7366808;19;19939;-64
2024/01/02 08:19:08;;;;;;;;;;;;;;;10.90;81.55;97413.53;7361250;19;20422;-64
2024/01/02 08:21:34;;;;;;;;;;;;;;;10.89;81.98;97414.47;7361990;19;20569;-64
2024/01/02 08:23:59;;;;;;;;;;;;;;;10.89;81.89;97415.28;7363709;19;19939;-65
2024/01/02 08:26:24;;;;;;;;;;;;;;;10.88;82.04;97408.41;7356284;19;20387;-64
2024/01/02 08:28:49;;;;;;;;;;;;;;;10.87;81.84;97404.16;7364920;19;19929;-64
2024/01/02 08:31:15;;;;;;;;;;;;;;;10.87;81.93;97403.31;7367823;19;20613;-64
2024/01/02 08:33:40;;;;;;;;;;;;;;;10.86;81.94;97399.06;7356042;19;20014;-65
2024/01/02 08:36:06;;;;;;;;;;;;;;;10.85;81.95;97407.84;7363242;19;19915;-64
2024/01/02 08:38:31;;;;;;;;;;;;;;;10.84;81.71;97404.38;7363448;19;20496;-65
2024/01/02 08:40:57;;;;;;;;;;;;;;;10.84;81.55;97401.75;7364133;19;19923;-64
2024/01/02 08:43:22;;;;;;;;;;;;;;;10.84;81.74;97400.94;7359536;19;19922;-64
2024/01/02 08:45:47;;;;;;;;;;;;;;;10.84;81.57;97395.72;7366555;19;19919;-64
2024/01/02 08:48:14;;;;;;;;;;;;;;;10.84;81.64;97393.09;7359258;19;19923;-64
2024/01/02 08:50:42;;;;;;;;;;;;;;;10.83;81.73;97383.63;7363733;19;19942;-64
2024/01/02 08:53:08;;;;;;;;;;;;;;;10.83;81.66;97384.44;7364482;19;19923;-64
2024/01/02 08:55:33;;;;;;;;;;;;;;;10.84;81.69;97382.66;7371003;19;20620;-64
2024/01/02 08:57:58;;;;;;;;;;;;;;;10.83;82.14;97378.41;7367994;19;20023;-64
2024/01/02 09:00:24;;;;;;;;;;;;;;;10.83;82.11;97378.41;7359110;19;19926;-64
2024/01/02 09:02:49;;;;;;;;;;;;;;;10.83;81.92;97374.00;7366450;19;19982;-65
2024/01/02 09:05:15;;;;;;;;;;;;;;;10.82;82.09;97367.13;7362785;19;19926;-64
2024/01/02 09:07:40;;;;;;;;;;;;;;;10.84;81.69;97374.84;7359314;19;20392;-64
2024/01/02 09:10:06;;;;;;;;;;;;;;;10.83;81.62;97362.75;7364844;19;20028;-64
2024/01/02 09:12:31;;;;;;;;;;;;;;;10.83;82.05;97362.75;7365096;19;19907;-64
2024/01/02 09:14:57;;;;;;;;;;;;;;;10.83;82.04;97357.53;7364020;19;19960;-65
2024/01/02 09:17:22;;;;;;;;;;;;;;;10.84;81.95;97353.94;7366767;19;19915;-64
2024/01/02 09:19:47;;;;;;;;;;;;;;;10.83;81.90;97355.75;7361706;19;19919;-64
2024/01/02 09:22:12;;;;;;;;;;;;;;;10.84;81.64;97343.50;7364736;19;20018;-64
2024/01/02 09:24:38;;;;;;;;;;;;;;;10.85;81.67;97345.19;7362700;19;19914;-64
2024/01/02 09:27:04;;;;;;;;;;;;;;;10.84;82.11;97340.91;7371349;19;19986;-64
2024/01/02 09:29:31;;;;;;;;;;;;;;;10.85;81.89;97337.38;7362280;19;19922;-64
2024/01/02 09:31:56;;;;;;;;;;;;;;;10.84;81.75;97328.69;7366642;19;19922;-64
2024/01/02 09:34:22;;;;;;;;;;;;;;;10.86;81.61;97325.97;7367145;19;19922;-64
2024/01/02 09:36:49;;;;;;;;;;;;;;;10.86;81.92;97316.34;7362907;19;19919;-64
2024/01/02 09:39:15;;;;;;;;;;;;;;;10.87;81.60;97312.78;7364786;19;20335;-64
2024/01/02 09:41:59;;;;;;;;;;;;;;;10.89;82.01;97315.28;7370050;19;19929;-64
2024/01/02 09:44:25;;;;;;;;;;;;;;;10.90;81.96;97311.75;7362278;19;20297;-64
2024/01/02 09:47:02;;;;;;;;;;;;;;;10.91;82.03;97308.16;7358869;19;20412;-64
2024/01/02 09:49:31;;;;;;;;;;;;;;;10.93;81.91;97305.44;7364352;19;19915;-65
2024/01/02 09:52:15;;;;;;;;;;;;;;;10.93;81.65;97300.22;7369210;19;20603;-64
2024/01/02 09:54:43;;;;;;;;;;;;;;;10.94;81.94;97297.47;7360856;19;19931;-64
2024/01/02 09:57:28;;;;;;;;;;;;;;;10.96;81.82;97289.53;7359955;19;19922;-64
2024/01/02 10:00:12;;;;;;;;;;;;;;;10.96;82.02;97287.75;7364815;19;20621;-64
2024/01/02 10:03:04;;;;;;;;;;;;;;;10.98;81.78;97283.22;7358539;19;19918;-64
2024/01/02 10:05:39;;;;;;;;;;;;;;;10.99;81.89;97279.66;7360277;19;19923;-64
2024/01/02 10:08:17;;;;;;;;;;;;;;;11.00;81.66;97280.50;7362676;19;19915;-64
2024/01/02 10:10:45;;;;;;;;;;;;;;;11.01;81.95;97283.00;7362266;19;19923;-64
2024/01/02 10:13:24;;;;;;;;;;;;;;;11.02;82.05;97273.38;7361810;19;20405;-64
2024/01/02 10:15:52;;;;;;;;;;;;;;;11.04;81.68;97276.69;7360529;19;19923;-64
2024/01/02 10:18:36;;;;;;;;;;;;;;;11.04;81.69;97282.75;7365606;19;20459;-64
2024/01/02 10:21:02;;;;;;;;;;;;;;;11.06;81.82;97291.31;7359066;19;19918;-63
2024/01/02 10:23:40;;;;;;;;;;;;;;;11.07;82.00;97292.94;7362810;19;19942;-64
2024/01/02 10:26:07;;;;;;;;;;;;;;;11.08;81.95;97293.78;7359982;19;19926;-64
2024/01/02 10:28:34;;;;;;;;;;;;;;;11.09;82.04;97296.25;7363045;19;19915;-64
2024/01/02 10:31:06;;;;;;;;;;;;;;;11.12;82.01;97298.63;7363839;19;19911;-64
2024/01/02 10:33:37;;;;;;;;;;;;;;;11.16;81.90;97300.06;7361828;19;20023;-64
2024/01/02 10:36:04;;;;;;;;;;;;;;;11.17;81.63;97299.09;7365970;19;19930;-64
2024/01/02 10:38:47;;;;;;;;;;;;;;;11.21;81.92;97293.66;7363750;19;20394;-64
2024/01/02 10:41:31;;;;;;;;;;;;;;;11.25;81.87;97289.81;7363522;19;20347;-64
2024/01/02 10:44:07;;;;;;;;;;;;;;;11.28;81.60;97286.97;7356301;19;19926;-64
2024/01/02 10:46:46;;;;;;;;;;;;;;;11.31;81.69;97289.34;7360391;19;20411;-64
2024/01/02 10:49:23;;;;;;;;;;;;;;;11.35;81.85;97293.34;7362109;19;20418;-64
2024/01/02 10:52:03;;;;;;;;;;;;;;;11.36;81.52;97292.44;7358694;19;19924;-64
2024/01/02 10:54:31;;;;;;;;;;;;;;;11.39;81.55;97287.75;7358343;19;19915;-64
2024/01/02 10:57:00;;;;;;;;;;;;;;;11.42;81.34;97281.47;7357026;19;19915;-64
2024/01/02 10:59:31;;;;;;;;;;;;;;;11.43;81.82;97283.97;7356114;19;19914;-64
2024/01/02 11:02:08;;;;;;;;;;;;;;;11.46;81.78;97282.91;7357789;19;19922;-64
2024/01/02 11:04:43;;;;;;;;;;;;;;;11.48;81.49;97286.19;7362011;19;20371;-64
2024/01/02 11:07:10;;;;;;;;;;;;;;;11.50;81.46;97289.50;7359739;19;20268;-64
2024/01/02 11:09:41;;;;;;;;;;;;;;;11.51;81.81;97283.34;7356644;19;19954;-64
2024/01/02 11:12:08;;;;;;;;;;;;;;;11.52;81.50;97284.19;7363184;19;20230;-65
2024/01/02 11:14:35;;;;;;;;;;;;;;;11.54;81.31;97287.47;7361586;19;20372;-64
2024/01/02 11:17:02;;;;;;;;;;;;;;;11.55;81.73;97276.91;7365882;19;19937;-64
2024/01/02 11:19:31;;;;;;;;;;;;;;;11.55;81.46;97276.91;7367108;19;19927;-64
2024/01/02 11:22:05;;;;;;;;;;;;;;;11.56;81.56;97281.19;7363494;19;19922;-64
2024/01/02 11:24:31;;;;;;;;;;;;;;;11.57;81.69;97275.00;7367215;19;20319;-64
2024/01/02 11:27:00;;;;;;;;;;;;;;;11.58;81.70;97275.84;7365894;19;19930;-64
2024/01/02 11:29:26;;;;;;;;;;;;;;;11.58;81.88;97276.66;7367984;19;19914;-64
2024/01/02 11:31:54;;;;;;;;;;;;;;;11.59;81.71;97280.94;7369247;19;19926;-64
2024/01/02 11:34:20;;;;;;;;;;;;;;;11.50;81.64;97260.75;7368386;19;19926;-65
2024/01/02 11:37:04;;;;;;;;;;;;;;;11.59;81.82;97283.53;7366240;19;19922;-64
2024/01/02 11:39:36;;;;;;;;;;;;;;;11.58;81.37;97276.66;7366437;19;20251;-64
2024/01/02 11:42:02;;;;;;;;;;;;;;;11.58;81.39;97279.28;7364674;19;19940;-64
2024/01/02 11:44:27;;;;;;;;;;;;;;;11.57;81.77;97274.19;7365976;19;19919;-64
2024/01/02 11:46:58;;;;;;;;;;;;;;;11.58;81.53;97275.84;7374671;19;20367;-65
2024/01/02 11:49:26;;;;;;;;;;;;;;;11.56;81.50;97286.41;7364285;19;19922;-64
2024/01/02 11:51:55;;;;;;;;;;;;;;;11.54;81.39;97275.25;7368108;19;19934;-64
2024/01/02 11:54:23;;;;;;;;;;;;;;;11.52;81.79;97276.34;7365803;19;19918;-64
2024/01/02 11:56:49;;;;;;;;;;;;;;;11.49;81.42;97277.41;7366648;19;19914;-64
2024/01/02 11:59:14;;;;;;;;;;;;;;;11.46;81.44;97277.66;7366560;19;19930;-64
2024/01/02 12:01:43;;;;;;;;;;;;;;;11.45;81.59;97275.97;7368386;19;19946;-62
2024/01/02 12:04:23;;;;;;;;;;;;;;;11.43;81.55;97273.50;7361757;19;19931;-63
2024/01/02 12:07:03;;;;;;;;;;;;;;;11.41;81.51;97279.81;7365820;19;19918;-63
2024/01/02 12:09:30;;;;;;;;;;;;;;;11.39;81.63;97274.69;7368558;19;19923;-63
2024/01/02 12:12:01;;;;;;;;;;;;;;;11.38;81.65;97280.06;7367191;19;20344;-63
2024/01/02 12:14:29;;;;;;;;;;;;;;;11.35;82.09;97275.94;7366078;19;20022;-63
2024/01/02 12:16:57;;;;;;;;;;;;;;;11.34;81.74;97278.63;7366917;19;19918;-62
2024/01/02 12:19:23;;;;;;;;;;;;;;;11.33;82.05;97277.00;7336608;19;19943;-62
2024/01/02 12:21:50;;;;;;;;;;;;;;;11.33;82.13;97277.00;7367780;19;20442;-63
2024/01/02 12:24:16;;;;;;;;;;;;;;;11.32;81.82;97281.38;7365567;19;20344;-62
2024/01/02 12:26:43;;;;;;;;;;;;;;;11.32;82.32;97285.78;7367314;19;19922;-62
2024/01/02 12:29:09;;;;;;;;;;;;;;;11.31;82.34;97278.91;7369667;19;19923;-62
2024/01/02 12:31:34;;;;;;;;;;;;;;;11.29;82.08;97279.00;7365903;19;20582;-62
2024/01/02 12:34:00;;;;;;;;;;;;;;;11.30;81.93;97290.28;7369297;19;19914;-62
2024/01/02 12:36:30;;;;;;;;;;;;;;;11.29;82.05;97286.00;7364907;19;20325;-62
2024/01/02 12:39:00;;;;;;;;;;;;;;;11.27;82.21;97293.16;7369231;19;20291;-61
2024/01/02 12:41:29;;;;;;;;;;;;;;;11.25;82.18;97285.41;7370118;19;19926;-61
2024/01/02 12:43:58;;;;;;;;;;;;;;;11.24;81.97;97298.63;7369747;19;20374;-62
2024/01/02 12:46:25;;;;;;;;;;;;;;;11.22;82.38;97290.91;7368755;19;19931;-62